sensor_id;sensor_type;location;lat;lon;timestamp;pressure;altitude;pressure_sealevel;temperature;humidity
35307;BME280;21420;52.196;21.416;2023-02-08T00:00:43;102892.11;;;0.67;69.20
35307;BME280;21420;52.196;21.416;2023-02-08T00:03:10;102896.60;;;0.63;69.05
35307;BME280;21420;52.196;21.416;2023-02-08T00:05:40;102900.54;;;0.57;69.19
35307;BME280;21420;52.196;21.416;2023-02-08T00:08:07;102904.94;;;0.55;69.06
35307;BME280;21420;52.196;21.416;2023-02-08T00:10:34;102909.45;;;0.51;68.94
35307;BME280;21420;52.196;21.416;2023-02-08T00:13:01;102912.31;;;0.48;68.91
35307;BME280;21420;52.196;21.416;2023-02-08T00:15:28;102913.38;;;0.39;68.87
35307;BME280;21420;52.196;21.416;2023-02-08T00:17:55;102917.02;;;0.30;68.62
35307;BME280;21420;52.196;21.416;2023-02-08T00:20:22;102916.23;;;0.29;68.84
35307;BME280;21420;52.196;21.416;2023-02-08T00:22:49;102920.39;;;0.31;68.99
35307;BME280;21420;52.196;21.416;2023-02-08T00:25:20;102923.13;;;0.32;69.13
35307;BME280;21420;52.196;21.416;2023-02-08T00:27:47;102917.03;;;0.31;69.02
35307;BME280;21420;52.196;21.416;2023-02-08T00:30:14;102915.20;;;0.26;68.93
35307;BME280;21420;52.196;21.416;2023-02-08T00:32:41;102910.98;;;0.20;68.64
35307;BME280;21420;52.196;21.416;2023-02-08T00:35:08;102915.80;;;0.16;68.65
35307;BME280;21420;52.196;21.416;2023-02-08T00:37:35;102918.38;;;0.17;68.86
35307;BME280;21420;52.196;21.416;2023-02-08T00:40:03;102918.73;;;0.21;69.14
35307;BME280;21420;52.196;21.416;2023-02-08T00:42:31;102920.70;;;0.19;69.07
35307;BME280;21420;52.196;21.416;2023-02-08T00:44:58;102918.54;;;0.15;69.00
35307;BME280;21420;52.196;21.416;2023-02-08T00:47:25;102921.51;;;0.12;69.08
35307;BME280;21420;52.196;21.416;2023-02-08T00:49:52;102919.89;;;0.10;68.92
35307;BME280;21420;52.196;21.416;2023-02-08T00:52:19;102921.35;;;0.12;69.01
35307;BME280;21420;52.196;21.416;2023-02-08T00:54:46;102923.17;;;0.13;69.26
35307;BME280;21420;52.196;21.416;2023-02-08T00:57:13;102927.60;;;0.12;69.20
35307;BME280;21420;52.196;21.416;2023-02-08T00:59:41;102929.84;;;0.10;69.13
35307;BME280;21420;52.196;21.416;2023-02-08T01:02:08;102931.17;;;0.09;69.13
35307;BME280;21420;52.196;21.416;2023-02-08T01:04:35;102932.89;;;0.08;69.10
35307;BME280;21420;52.196;21.416;2023-02-08T01:07:03;102931.70;;;0.07;69.07
35307;BME280;21420;52.196;21.416;2023-02-08T01:09:31;102933.60;;;0.07;69.09
35307;BME280;21420;52.196;21.416;2023-02-08T01:11:58;102934.89;;;0.07;69.00
35307;BME280;21420;52.196;21.416;2023-02-08T01:14:25;102932.83;;;0.10;69.01
35307;BME280;21420;52.196;21.416;2023-02-08T01:16:52;102930.67;;;0.11;69.16
35307;BME280;21420;52.196;21.416;2023-02-08T01:19:19;102932.83;;;0.11;69.25
35307;BME280;21420;52.196;21.416;2023-02-08T01:21:46;102938.09;;;0.12;69.22
35307;BME280;21420;52.196;21.416;2023-02-08T01:24:14;102940.12;;;0.13;69.21
35307;BME280;21420;52.196;21.416;2023-02-08T01:26:42;102941.95;;;0.14;69.15
35307;BME280;21420;52.196;21.416;2023-02-08T01:29:09;102939.10;;;0.16;69.23
35307;BME280;21420;52.196;21.416;2023-02-08T01:31:39;102940.23;;;0.20;69.30
35307;BME280;21420;52.196;21.416;2023-02-08T01:34:07;102942.38;;;0.21;69.27
35307;BME280;21420;52.196;21.416;2023-02-08T01:36:36;102942.27;;;0.22;69.36
35307;BME280;21420;52.196;21.416;2023-02-08T01:39:04;102942.31;;;0.23;69.43
35307;BME280;21420;52.196;21.416;2023-02-08T01:41:34;102946.12;;;0.20;69.31
35307;BME280;21420;52.196;21.416;2023-02-08T01:46:41;102948.91;;;0.09;69.26
35307;BME280;21420;52.196;21.416;2023-02-08T01:51:44;102942.67;;;0.10;69.11
35307;BME280;21420;52.196;21.416;2023-02-08T01:54:13;102941.73;;;0.09;69.10
35307;BME280;21420;52.196;21.416;2023-02-08T01:56:44;102944.64;;;0.07;69.09
35307;BME280;21420;52.196;21.416;2023-02-08T01:59:20;102946.47;;;0.08;69.39
35307;BME280;21420;52.196;21.416;2023-02-08T02:01:51;102951.11;;;0.07;69.34
35307;BME280;21420;52.196;21.416;2023-02-08T02:04:20;102951.59;;;0.05;69.24
35307;BME280;21420;52.196;21.416;2023-02-08T02:06:51;102956.21;;;-0.00;69.16
35307;BME280;21420;52.196;21.416;2023-02-08T02:09:23;102960.41;;;-0.08;68.97
35307;BME280;21420;52.196;21.416;2023-02-08T02:11:53;102964.04;;;-0.11;69.12
35307;BME280;21420;52.196;21.416;2023-02-08T02:14:20;102962.77;;;-0.12;68.95
35307;BME280;21420;52.196;21.416;2023-02-08T02:16:48;102961.33;;;-0.18;68.90
35307;BME280;21420;52.196;21.416;2023-02-08T02:19:38;102959.44;;;-0.24;68.91
35307;BME280;21420;52.196;21.416;2023-02-08T02:27:49;102964.11;;;-0.35;69.13
35307;BME280;21420;52.196;21.416;2023-02-08T02:36:00;102970.86;;;-0.27;69.37
35307;BME280;21420;52.196;21.416;2023-02-08T02:48:07;102985.36;;;-0.17;69.62
35307;BME280;21420;52.196;21.416;2023-02-08T02:51:23;102987.34;;;-0.12;69.62
35307;BME280;21420;52.196;21.416;2023-02-08T02:53:56;102988.61;;;-0.04;69.69
35307;BME280;21420;52.196;21.416;2023-02-08T02:56:33;102989.46;;;0.01;69.70
35307;BME280;21420;52.196;21.416;2023-02-08T02:59:07;102989.39;;;0.03;69.88
35307;BME280;21420;52.196;21.416;2023-02-08T03:01:37;102988.63;;;0.00;69.83
35307;BME280;21420;52.196;21.416;2023-02-08T03:04:17;102987.40;;;-0.04;69.58
35307;BME280;21420;52.196;21.416;2023-02-08T03:20:49;102992.73;;;-0.10;69.48
35307;BME280;21420;52.196;21.416;2023-02-08T03:23:45;102988.37;;;-0.14;69.69
35307;BME280;21420;52.196;21.416;2023-02-08T03:26:21;102991.77;;;-0.20;69.70
35307;BME280;21420;52.196;21.416;2023-02-08T03:28:54;103000.09;;;-0.22;69.69
35307;BME280;21420;52.196;21.416;2023-02-08T03:34:10;103005.05;;;-0.25;69.62
35307;BME280;21420;52.196;21.416;2023-02-08T03:37:00;103008.23;;;-0.26;69.66
35307;BME280;21420;52.196;21.416;2023-02-08T03:39:31;103009.14;;;-0.29;69.59
35307;BME280;21420;52.196;21.416;2023-02-08T03:42:05;103008.08;;;-0.32;69.62
35307;BME280;21420;52.196;21.416;2023-02-08T03:44:42;103008.86;;;-0.32;69.78
35307;BME280;21420;52.196;21.416;2023-02-08T03:47:18;103016.17;;;-0.36;69.67
35307;BME280;21420;52.196;21.416;2023-02-08T03:49:50;103018.89;;;-0.45;69.43
35307;BME280;21420;52.196;21.416;2023-02-08T03:52:18;103017.33;;;-0.52;69.37
35307;BME280;21420;52.196;21.416;2023-02-08T03:54:51;103013.84;;;-0.60;69.29
35307;BME280;21420;52.196;21.416;2023-02-08T03:57:23;103017.34;;;-0.68;69.14
35307;BME280;21420;52.196;21.416;2023-02-08T04:00:05;103019.36;;;-0.73;69.18
35307;BME280;21420;52.196;21.416;2023-02-08T04:02:42;103020.74;;;-0.78;69.26
35307;BME280;21420;52.196;21.416;2023-02-08T04:05:12;103020.81;;;-0.80;69.37
35307;BME280;21420;52.196;21.416;2023-02-08T04:07:39;103023.45;;;-0.81;69.32
35307;BME280;21420;52.196;21.416;2023-02-08T04:10:06;103025.42;;;-0.77;69.65
35307;BME280;21420;52.196;21.416;2023-02-08T04:12:34;103022.48;;;-0.73;69.58
35307;BME280;21420;52.196;21.416;2023-02-08T04:15:01;103023.99;;;-0.71;69.83
35307;BME280;21420;52.196;21.416;2023-02-08T04:17:28;103024.41;;;-0.69;69.83
35307;BME280;21420;52.196;21.416;2023-02-08T04:19:55;103028.08;;;-0.67;69.83
35307;BME280;21420;52.196;21.416;2023-02-08T04:22:22;103026.37;;;-0.62;69.89
35307;BME280;21420;52.196;21.416;2023-02-08T04:24:49;103027.81;;;-0.57;70.01
35307;BME280;21420;52.196;21.416;2023-02-08T04:27:16;103028.13;;;-0.51;69.95
35307;BME280;21420;52.196;21.416;2023-02-08T04:29:43;103029.63;;;-0.47;69.94
35307;BME280;21420;52.196;21.416;2023-02-08T04:32:10;103031.08;;;-0.45;70.12
35307;BME280;21420;52.196;21.416;2023-02-08T04:34:38;103032.29;;;-0.43;70.10
35307;BME280;21420;52.196;21.416;2023-02-08T04:37:06;103033.55;;;-0.41;70.08
35307;BME280;21420;52.196;21.416;2023-02-08T04:39:33;103034.17;;;-0.42;69.97
35307;BME280;21420;52.196;21.416;2023-02-08T04:42:00;103035.14;;;-0.40;70.04
35307;BME280;21420;52.196;21.416;2023-02-08T04:44:29;103034.69;;;-0.37;70.15
35307;BME280;21420;52.196;21.416;2023-02-08T04:46:59;103034.29;;;-0.36;70.11
35307;BME280;21420;52.196;21.416;2023-02-08T04:49:26;103034.98;;;-0.36;70.16
35307;BME280;21420;52.196;21.416;2023-02-08T04:51:53;103036.42;;;-0.37;70.08
35307;BME280;21420;52.196;21.416;2023-02-08T04:54:20;103036.06;;;-0.41;69.84
35307;BME280;21420;52.196;21.416;2023-02-08T04:56:47;103037.61;;;-0.48;69.64
35307;BME280;21420;52.196;21.416;2023-02-08T04:59:14;103042.17;;;-0.58;69.54
35307;BME280;21420;52.196;21.416;2023-02-08T05:01:41;103043.38;;;-0.68;69.41
35307;BME280;21420;52.196;21.416;2023-02-08T05:04:08;103046.15;;;-0.74;69.54
35307;BME280;21420;52.196;21.416;2023-02-08T05:06:35;103047.64;;;-0.78;69.62
35307;BME280;21420;52.196;21.416;2023-02-08T05:09:02;103047.52;;;-0.80;69.55
35307;BME280;21420;52.196;21.416;2023-02-08T05:11:29;103045.60;;;-0.81;69.70
35307;BME280;21420;52.196;21.416;2023-02-08T05:13:56;103046.39;;;-0.80;69.92
35307;BME280;21420;52.196;21.416;2023-02-08T05:16:23;103050.55;;;-0.79;69.85
35307;BME280;21420;52.196;21.416;2023-02-08T05:18:50;103051.39;;;-0.78;69.81
35307;BME280;21420;52.196;21.416;2023-02-08T05:21:17;103055.56;;;-0.73;70.06
35307;BME280;21420;52.196;21.416;2023-02-08T05:23:43;103064.34;;;-0.68;70.07
35307;BME280;21420;52.196;21.416;2023-02-08T05:26:12;103067.36;;;-0.61;70.17
35307;BME280;21420;52.196;21.416;2023-02-08T05:28:39;103067.91;;;-0.59;70.33
35307;BME280;21420;52.196;21.416;2023-02-08T05:31:16;103070.40;;;-0.60;70.24
35307;BME280;21420;52.196;21.416;2023-02-08T05:33:44;103074.75;;;-0.58;70.15
35307;BME280;21420;52.196;21.416;2023-02-08T05:36:11;103077.38;;;-0.51;70.30
35307;BME280;21420;52.196;21.416;2023-02-08T05:38:38;103081.58;;;-0.45;70.31
35307;BME280;21420;52.196;21.416;2023-02-08T05:41:04;103087.15;;;-0.39;70.26
35307;BME280;21420;52.196;21.416;2023-02-08T05:43:31;103086.45;;;-0.34;70.45
35307;BME280;21420;52.196;21.416;2023-02-08T05:45:58;103082.94;;;-0.33;70.36
35307;BME280;21420;52.196;21.416;2023-02-08T05:48:25;103088.33;;;-0.39;69.98
35307;BME280;21420;52.196;21.416;2023-02-08T05:50:52;103095.34;;;-0.43;69.83
35307;BME280;21420;52.196;21.416;2023-02-08T05:53:19;103100.11;;;-0.47;69.83
35307;BME280;21420;52.196;21.416;2023-02-08T05:55:46;103101.36;;;-0.47;70.00
35307;BME280;21420;52.196;21.416;2023-02-08T05:58:14;103103.52;;;-0.47;70.12
35307;BME280;21420;52.196;21.416;2023-02-08T06:00:42;103104.45;;;-0.43;70.27
35307;BME280;21420;52.196;21.416;2023-02-08T06:03:10;103106.05;;;-0.38;70.35
35307;BME280;21420;52.196;21.416;2023-02-08T06:05:38;103113.62;;;-0.36;70.32
35307;BME280;21420;52.196;21.416;2023-02-08T06:08:06;103115.45;;;-0.39;70.19
35307;BME280;21420;52.196;21.416;2023-02-08T06:10:33;103115.84;;;-0.43;70.04
35307;BME280;21420;52.196;21.416;2023-02-08T06:13:01;103113.23;;;-0.47;69.87
35307;BME280;21420;52.196;21.416;2023-02-08T06:15:28;103116.13;;;-0.49;69.95
35307;BME280;21420;52.196;21.416;2023-02-08T06:17:55;103115.20;;;-0.49;70.11
35307;BME280;21420;52.196;21.416;2023-02-08T06:20:22;103121.69;;;-0.48;70.26
35307;BME280;21420;52.196;21.416;2023-02-08T06:22:49;103125.24;;;-0.43;70.38
35307;BME280;21420;52.196;21.416;2023-02-08T06:25:16;103126.69;;;-0.32;70.44
35307;BME280;21420;52.196;21.416;2023-02-08T06:27:43;103133.58;;;-0.24;70.48
35307;BME280;21420;52.196;21.416;2023-02-08T06:30:11;103135.02;;;-0.19;70.43
35307;BME280;21420;52.196;21.416;2023-02-08T06:32:38;103134.14;;;-0.22;70.33
35307;BME280;21420;52.196;21.416;2023-02-08T06:35:06;103130.64;;;-0.30;70.22
35307;BME280;21420;52.196;21.416;2023-02-08T06:37:33;103131.70;;;-0.37;70.10
35307;BME280;21420;52.196;21.416;2023-02-08T06:40:00;103132.04;;;-0.42;69.96
35307;BME280;21420;52.196;21.416;2023-02-08T06:42:27;103132.20;;;-0.48;69.87
35307;BME280;21420;52.196;21.416;2023-02-08T06:44:54;103131.86;;;-0.53;69.77
35307;BME280;21420;52.196;21.416;2023-02-08T06:47:22;103131.54;;;-0.58;69.73
35307;BME280;21420;52.196;21.416;2023-02-08T06:49:50;103136.39;;;-0.62;69.96
35307;BME280;21420;52.196;21.416;2023-02-08T06:52:17;103140.21;;;-0.66;69.94
35307;BME280;21420;52.196;21.416;2023-02-08T06:54:44;103139.30;;;-0.66;69.87
35307;BME280;21420;52.196;21.416;2023-02-08T06:57:12;103140.95;;;-0.66;70.19
35307;BME280;21420;52.196;21.416;2023-02-08T06:59:40;103142.90;;;-0.66;70.02
35307;BME280;21420;52.196;21.416;2023-02-08T07:02:16;103149.00;;;-0.64;69.99
35307;BME280;21420;52.196;21.416;2023-02-08T07:04:44;103154.58;;;-0.61;70.21
35307;BME280;21420;52.196;21.416;2023-02-08T07:07:12;103157.73;;;-0.61;70.14
35307;BME280;21420;52.196;21.416;2023-02-08T07:09:39;103160.73;;;-0.58;70.28
35307;BME280;21420;52.196;21.416;2023-02-08T07:12:06;103163.46;;;-0.54;70.32
35307;BME280;21420;52.196;21.416;2023-02-08T07:14:36;103166.09;;;-0.51;70.22
35307;BME280;21420;52.196;21.416;2023-02-08T07:17:04;103170.77;;;-0.47;70.22
35307;BME280;21420;52.196;21.416;2023-02-08T07:19:32;103176.71;;;-0.41;70.44
35307;BME280;21420;52.196;21.416;2023-02-08T07:21:59;103181.02;;;-0.35;70.47
35307;BME280;21420;52.196;21.416;2023-02-08T07:24:41;103186.05;;;-0.28;70.37
35307;BME280;21420;52.196;21.416;2023-02-08T07:27:11;103181.31;;;-0.26;70.42
35307;BME280;21420;52.196;21.416;2023-02-08T07:29:38;103180.14;;;-0.22;70.34
35307;BME280;21420;52.196;21.416;2023-02-08T07:32:06;103181.91;;;-0.18;70.46
35307;BME280;21420;52.196;21.416;2023-02-08T07:34:35;103182.08;;;-0.16;70.25
35307;BME280;21420;52.196;21.416;2023-02-08T07:37:03;103181.35;;;-0.15;70.42
35307;BME280;21420;52.196;21.416;2023-02-08T07:39:31;103180.99;;;-0.06;70.57
35307;BME280;21420;52.196;21.416;2023-02-08T07:41:58;103182.19;;;0.04;70.63
35307;BME280;21420;52.196;21.416;2023-02-08T07:44:27;103182.45;;;0.07;70.42
35307;BME280;21420;52.196;21.416;2023-02-08T07:46:53;103179.11;;;0.10;70.28
35307;BME280;21420;52.196;21.416;2023-02-08T07:49:20;103178.65;;;0.16;70.51
35307;BME280;21420;52.196;21.416;2023-02-08T07:51:47;103181.60;;;0.18;70.48
35307;BME280;21420;52.196;21.416;2023-02-08T07:54:14;103178.46;;;0.20;70.42
35307;BME280;21420;52.196;21.416;2023-02-08T07:56:41;103181.88;;;0.20;70.40
35307;BME280;21420;52.196;21.416;2023-02-08T07:59:08;103177.70;;;0.23;70.41
35307;BME280;21420;52.196;21.416;2023-02-08T08:01:36;103179.09;;;0.33;70.52
35307;BME280;21420;52.196;21.416;2023-02-08T08:04:03;103181.67;;;0.45;70.69
35307;BME280;21420;52.196;21.416;2023-02-08T08:06:30;103180.31;;;0.55;70.70
35307;BME280;21420;52.196;21.416;2023-02-08T08:08:57;103185.59;;;0.65;70.79
35307;BME280;21420;52.196;21.416;2023-02-08T08:11:24;103191.24;;;0.77;70.80
35307;BME280;21420;52.196;21.416;2023-02-08T08:13:51;103190.29;;;0.77;70.53
35307;BME280;21420;52.196;21.416;2023-02-08T08:16:19;103192.16;;;0.71;70.36
35307;BME280;21420;52.196;21.416;2023-02-08T08:18:46;103196.13;;;0.63;70.20
35307;BME280;21420;52.196;21.416;2023-02-08T08:21:13;103196.47;;;0.56;70.13
35307;BME280;21420;52.196;21.416;2023-02-08T08:23:42;103196.06;;;0.52;70.05
35307;BME280;21420;52.196;21.416;2023-02-08T08:26:12;103198.14;;;0.51;70.24
35307;BME280;21420;52.196;21.416;2023-02-08T08:28:40;103199.89;;;0.53;70.12
35307;BME280;21420;52.196;21.416;2023-02-08T08:31:15;103200.20;;;0.58;70.25
35307;BME280;21420;52.196;21.416;2023-02-08T08:33:44;103197.91;;;0.57;70.31
35307;BME280;21420;52.196;21.416;2023-02-08T08:36:11;103200.23;;;0.55;70.14
35307;BME280;21420;52.196;21.416;2023-02-08T08:38:38;103204.21;;;0.55;70.12
35307;BME280;21420;52.196;21.416;2023-02-08T08:41:08;103207.45;;;0.56;70.25
35307;BME280;21420;52.196;21.416;2023-02-08T08:43:36;103205.30;;;0.58;70.24
35307;BME280;21420;52.196;21.416;2023-02-08T08:46:07;103203.59;;;0.64;70.26
35307;BME280;21420;52.196;21.416;2023-02-08T08:48:35;103203.71;;;0.64;70.18
35307;BME280;21420;52.196;21.416;2023-02-08T08:51:03;103204.48;;;0.70;70.21
35307;BME280;21420;52.196;21.416;2023-02-08T08:53:30;103206.17;;;0.76;70.16
35307;BME280;21420;52.196;21.416;2023-02-08T08:55:57;103204.73;;;0.78;70.19
35307;BME280;21420;52.196;21.416;2023-02-08T08:58:24;103204.53;;;0.81;70.12
35307;BME280;21420;52.196;21.416;2023-02-08T09:00:51;103205.05;;;0.87;70.19
35307;BME280;21420;52.196;21.416;2023-02-08T09:03:19;103202.89;;;0.94;70.26
35307;BME280;21420;52.196;21.416;2023-02-08T09:05:46;103203.99;;;1.03;70.30
35307;BME280;21420;52.196;21.416;2023-02-08T09:08:13;103204.02;;;1.13;70.38
35307;BME280;21420;52.196;21.416;2023-02-08T09:10:40;103202.66;;;1.18;70.34
35307;BME280;21420;52.196;21.416;2023-02-08T09:13:08;103204.55;;;1.25;70.19
35307;BME280;21420;52.196;21.416;2023-02-08T09:15:40;103212.04;;;1.31;70.22
35307;BME280;21420;52.196;21.416;2023-02-08T09:18:07;103209.46;;;1.36;70.37
35307;BME280;21420;52.196;21.416;2023-02-08T09:20:36;103210.39;;;1.43;70.29
35307;BME280;21420;52.196;21.416;2023-02-08T09:23:03;103209.28;;;1.51;70.15
35307;BME280;21420;52.196;21.416;2023-02-08T09:25:31;103209.82;;;1.55;70.13
35307;BME280;21420;52.196;21.416;2023-02-08T09:27:59;103208.63;;;1.60;70.18
35307;BME280;21420;52.196;21.416;2023-02-08T09:30:26;103214.02;;;1.63;70.02
35307;BME280;21420;52.196;21.416;2023-02-08T09:32:53;103213.25;;;1.64;70.07
35307;BME280;21420;52.196;21.416;2023-02-08T09:35:20;103210.91;;;1.67;70.07
35307;BME280;21420;52.196;21.416;2023-02-08T09:37:46;103210.88;;;1.70;70.12
35307;BME280;21420;52.196;21.416;2023-02-08T09:40:23;103211.95;;;1.78;70.16
35307;BME280;21420;52.196;21.416;2023-02-08T09:45:59;103215.61;;;1.83;69.84
35307;BME280;21420;52.196;21.416;2023-02-08T09:48:37;103216.86;;;1.77;69.69
35307;BME280;21420;52.196;21.416;2023-02-08T09:54:03;103208.63;;;1.92;69.96
35307;BME280;21420;52.196;21.416;2023-02-08T09:56:37;103206.72;;;1.95;69.83
35307;BME280;21420;52.196;21.416;2023-02-08T09:59:12;103211.70;;;1.96;69.69
35307;BME280;21420;52.196;21.416;2023-02-08T10:01:42;103213.86;;;1.98;69.75
35307;BME280;21420;52.196;21.416;2023-02-08T10:04:35;103215.23;;;1.98;69.60
35307;BME280;21420;52.196;21.416;2023-02-08T10:07:08;103209.58;;;1.91;69.42
35307;BME280;21420;52.196;21.416;2023-02-08T10:09:37;103206.01;;;1.87;69.42
35307;BME280;21420;52.196;21.416;2023-02-08T10:34:10;103208.58;;;1.96;69.51
35307;BME280;21420;52.196;21.416;2023-02-08T10:36:42;103213.48;;;2.05;69.35
35307;BME280;21420;52.196;21.416;2023-02-08T10:39:18;103212.63;;;2.05;69.20
35307;BME280;21420;52.196;21.416;2023-02-08T10:41:49;103208.33;;;2.07;69.30
35307;BME280;21420;52.196;21.416;2023-02-08T10:44:35;103204.08;;;2.09;69.22
35307;BME280;21420;52.196;21.416;2023-02-08T10:47:43;103204.45;;;2.09;69.21
35307;BME280;21420;52.196;21.416;2023-02-08T10:52:47;103202.78;;;2.07;68.89
35307;BME280;21420;52.196;21.416;2023-02-08T10:55:18;103200.91;;;2.05;68.89
35307;BME280;21420;52.196;21.416;2023-02-08T10:57:46;103194.89;;;2.01;68.83
35307;BME280;21420;52.196;21.416;2023-02-08T11:00:19;103194.77;;;2.03;68.94
35307;BME280;21420;52.196;21.416;2023-02-08T11:02:49;103196.59;;;2.07;68.90
35307;BME280;21420;52.196;21.416;2023-02-08T11:05:19;103191.92;;;2.11;68.82
35307;BME280;21420;52.196;21.416;2023-02-08T11:08:07;103194.16;;;2.12;68.63
35307;BME280;21420;52.196;21.416;2023-02-08T11:10:36;103188.55;;;2.14;68.65
35307;BME280;21420;52.196;21.416;2023-02-08T11:13:17;103187.23;;;2.13;68.39
35307;BME280;21420;52.196;21.416;2023-02-08T11:15:59;103186.54;;;2.06;68.39
35307;BME280;21420;52.196;21.416;2023-02-08T11:18:31;103185.86;;;2.05;68.50
35307;BME280;21420;52.196;21.416;2023-02-08T11:21:05;103189.94;;;2.07;68.54
35307;BME280;21420;52.196;21.416;2023-02-08T11:23:37;103186.94;;;2.11;68.43
35307;BME280;21420;52.196;21.416;2023-02-08T11:26:19;103188.52;;;2.14;68.50
35307;BME280;21420;52.196;21.416;2023-02-08T11:31:31;103186.39;;;2.20;68.37
35307;BME280;21420;52.196;21.416;2023-02-08T11:34:09;103182.88;;;2.23;68.52
35307;BME280;21420;52.196;21.416;2023-02-08T11:36:44;103181.05;;;2.27;68.44
35307;BME280;21420;52.196;21.416;2023-02-08T11:41:55;103183.48;;;2.31;68.31
35307;BME280;21420;52.196;21.416;2023-02-08T11:44:30;103185.07;;;2.33;68.15
35307;BME280;21420;52.196;21.416;2023-02-08T11:47:00;103186.59;;;2.36;68.07
35307;BME280;21420;52.196;21.416;2023-02-08T11:49:52;103189.48;;;2.45;68.28
35307;BME280;21420;52.196;21.416;2023-02-08T11:54:51;103179.96;;;2.74;68.24
35307;BME280;21420;52.196;21.416;2023-02-08T11:57:24;103179.95;;;2.87;68.29
35307;BME280;21420;52.196;21.416;2023-02-08T12:00:15;103179.12;;;3.01;68.36
35307;BME280;21420;52.196;21.416;2023-02-08T12:02:43;103176.86;;;3.09;68.13
35307;BME280;21420;52.196;21.416;2023-02-08T12:05:15;103178.88;;;3.19;68.10
35307;BME280;21420;52.196;21.416;2023-02-08T12:13:04;103173.61;;;3.96;68.51
35307;BME280;21420;52.196;21.416;2023-02-08T12:23:47;103177.20;;;4.21;68.00
35307;BME280;21420;52.196;21.416;2023-02-08T12:50:55;103152.61;;;9.87;66.75
35307;BME280;21420;52.196;21.416;2023-02-08T12:53:34;103150.67;;;10.19;66.36
35307;BME280;21420;52.196;21.416;2023-02-08T12:56:10;103150.38;;;10.36;66.13
35307;BME280;21420;52.196;21.416;2023-02-08T12:58:45;103148.72;;;10.56;65.76
35307;BME280;21420;52.196;21.416;2023-02-08T13:01:18;103144.02;;;10.79;65.89
35307;BME280;21420;52.196;21.416;2023-02-08T13:04:01;103137.68;;;10.93;65.55
35307;BME280;21420;52.196;21.416;2023-02-08T13:06:35;103136.66;;;10.56;64.93
35307;BME280;21420;52.196;21.416;2023-02-08T13:09:45;103132.74;;;10.45;64.85
35307;BME280;21420;52.196;21.416;2023-02-08T13:12:21;103132.34;;;10.39;64.56
35307;BME280;21420;52.196;21.416;2023-02-08T13:14:54;103130.31;;;10.40;64.77
35307;BME280;21420;52.196;21.416;2023-02-08T13:17:27;103126.35;;;10.17;64.06
35307;BME280;21420;52.196;21.416;2023-02-08T13:20:15;103130.63;;;9.52;63.16
35307;BME280;21420;52.196;21.416;2023-02-08T13:22:46;103128.16;;;8.51;62.56
35307;BME280;21420;52.196;21.416;2023-02-08T13:25:20;103126.84;;;7.87;62.70
35307;BME280;21420;52.196;21.416;2023-02-08T13:27:50;103123.70;;;7.67;63.29
35307;BME280;21420;52.196;21.416;2023-02-08T13:30:19;103122.73;;;7.74;64.01
35307;BME280;21420;52.196;21.416;2023-02-08T13:32:48;103123.61;;;7.62;63.68
35307;BME280;21420;52.196;21.416;2023-02-08T13:35:17;103124.86;;;7.27;63.53
35307;BME280;21420;52.196;21.416;2023-02-08T13:38:19;103121.66;;;6.99;63.67
35307;BME280;21420;52.196;21.416;2023-02-08T13:41:07;103118.64;;;6.44;63.01
35307;BME280;21420;52.196;21.416;2023-02-08T13:43:52;103116.08;;;5.93;62.92
35307;BME280;21420;52.196;21.416;2023-02-08T13:46:22;103114.21;;;5.54;63.05
35307;BME280;21420;52.196;21.416;2023-02-08T13:48:57;103114.34;;;5.19;63.03
35307;BME280;21420;52.196;21.416;2023-02-08T13:56:50;103117.45;;;4.45;63.41
35307;BME280;21420;52.196;21.416;2023-02-08T14:04:47;103110.45;;;3.73;63.57
35307;BME280;21420;52.196;21.416;2023-02-08T14:07:21;103111.27;;;3.56;63.62
35307;BME280;21420;52.196;21.416;2023-02-08T14:12:24;103114.80;;;3.04;63.08
35307;BME280;21420;52.196;21.416;2023-02-08T14:17:46;103118.11;;;3.06;63.93
35307;BME280;21420;52.196;21.416;2023-02-08T14:20:20;103116.67;;;3.15;63.82
35307;BME280;21420;52.196;21.416;2023-02-08T14:22:50;103112.67;;;3.16;63.78
35307;BME280;21420;52.196;21.416;2023-02-08T14:25:40;103115.83;;;3.25;63.87
35307;BME280;21420;52.196;21.416;2023-02-08T14:30:56;103110.66;;;3.58;64.14
35307;BME280;21420;52.196;21.416;2023-02-08T14:33:31;103109.06;;;3.79;64.21
35307;BME280;21420;52.196;21.416;2023-02-08T14:36:05;103111.31;;;3.94;64.02
35307;BME280;21420;52.196;21.416;2023-02-08T14:42:05;103105.89;;;3.87;63.51
35307;BME280;21420;52.196;21.416;2023-02-08T14:50:14;103108.88;;;3.28;63.07
35307;BME280;21420;52.196;21.416;2023-02-08T14:52:44;103108.52;;;2.97;63.10
35307;BME280;21420;52.196;21.416;2023-02-08T14:55:17;103107.05;;;2.76;63.30
35307;BME280;21420;52.196;21.416;2023-02-08T14:57:46;103108.69;;;2.69;63.37
35307;BME280;21420;52.196;21.416;2023-02-08T15:00:21;103109.61;;;2.66;63.36
35307;BME280;21420;52.196;21.416;2023-02-08T15:02:49;103106.66;;;2.72;63.55
35307;BME280;21420;52.196;21.416;2023-02-08T15:05:30;103114.31;;;2.76;63.49
35307;BME280;21420;52.196;21.416;2023-02-08T15:08:00;103113.21;;;2.70;63.48
35307;BME280;21420;52.196;21.416;2023-02-08T15:10:28;103114.17;;;2.60;63.34
35307;BME280;21420;52.196;21.416;2023-02-08T15:12:57;103112.98;;;2.52;63.46
35307;BME280;21420;52.196;21.416;2023-02-08T15:15:37;103109.52;;;2.44;63.20
35307;BME280;21420;52.196;21.416;2023-02-08T15:18:06;103108.90;;;2.29;63.11
35307;BME280;21420;52.196;21.416;2023-02-08T15:20:44;103110.26;;;2.10;62.98
35307;BME280;21420;52.196;21.416;2023-02-08T15:23:23;103113.04;;;1.92;62.90
35307;BME280;21420;52.196;21.416;2023-02-08T15:26:21;103118.39;;;1.79;62.84
35307;BME280;21420;52.196;21.416;2023-02-08T15:28:48;103119.07;;;1.67;63.06
35307;BME280;21420;52.196;21.416;2023-02-08T15:31:27;103111.84;;;1.59;63.18